Time,TemperatureF,DewpointF,PressureIn,WindDirection,WindDirectionDegrees,WindSpeedMPH,WindSpeedGustMPH,Humidity,HourlyPrecipIn,Conditions,Clouds,dailyrainin,SoftwareType,DateUTC
2013-03-16 00:04:00,62.8,7.0,-100.00,West,265,0.0,0.0,11,0.00,,,0.00,,2013-03-16 05:04:00,
2013-03-16 00:09:00,62.6,9.0,-100.00,West,265,0.0,0.0,12,0.00,,,0.00,,2013-03-16 05:09:00,
2013-03-16 00:14:00,62.5,9.0,-100.00,West,265,0.0,0.0,12,0.00,,,0.00,,2013-03-16 05:14:00,
2013-03-16 00:19:00,62.5,9.0,-100.00,West,265,0.0,0.0,12,0.00,,,0.00,,2013-03-16 05:19:00,
2013-03-16 00:24:00,62.4,9.0,-100.00,West,265,0.0,0.0,12,0.00,,,0.00,,2013-03-16 05:24:00,
2013-03-16 00:29:00,62.3,9.0,-100.00,West,259,0.0,0.0,12,0.00,,,0.00,,2013-03-16 05:29:00,
2013-03-16 00:34:00,62.1,8.0,-100.00,West,265,0.0,0.0,12,0.00,,,0.00,,2013-03-16 05:34:00,
2013-03-16 00:39:00,62.0,10.0,-100.00,West,265,0.0,0.0,13,0.00,,,0.00,,2013-03-16 05:39:00,
2013-03-16 00:44:00,60.9,9.0,-100.00,West,262,0.0,0.0,13,0.00,,,0.00,,2013-03-16 05:44:00,
2013-03-16 00:54:00,60.8,9.0,-100.00,West,265,0.0,0.0,13,0.00,,,0.00,,2013-03-16 05:54:00,
2013-03-16 00:59:00,60.6,9.0,-100.00,West,265,0.0,0.0,13,0.00,,,0.00,,2013-03-16 05:59:00,
2013-03-16 01:04:00,60.5,11.0,-100.00,West,265,0.0,0.0,14,0.00,,,0.00,,2013-03-16 06:04:00,
2013-03-16 01:09:00,60.3,42.0,-100.00,West,265,0.0,0.0,51,0.00,,,0.00,,2013-03-16 06:09:00,
2013-03-16 01:14:00,60.2,41.0,-100.00,West,265,0.0,0.0,50,0.00,,,0.00,,2013-03-16 06:14:00,
2013-03-16 01:19:00,60.2,41.0,-100.00,West,265,0.0,0.0,50,0.00,,,0.00,,2013-03-16 06:19:00,
2013-03-16 01:24:00,60.1,36.0,-100.00,West,265,0.0,0.0,42,0.00,,,0.00,,2013-03-16 06:24:00,
2013-03-16 01:29:00,60.0,43.0,-100.00,West,265,0.0,0.0,54,0.00,,,0.00,,2013-03-16 06:29:00,
2013-03-16 01:34:00,58.9,40.0,-100.00,West,265,0.0,0.0,50,0.00,,,0.00,,2013-03-16 06:34:00,
2013-03-16 01:39:00,58.8,38.0,-100.00,West,265,0.0,0.0,47,0.00,,,0.00,,2013-03-16 06:39:00,
2013-03-16 01:44:00,58.7,39.0,-100.00,West,265,0.0,0.0,49,0.00,,,0.00,,2013-03-16 06:44:00,
2013-03-16 01:49:00,58.6,38.0,-100.00,West,265,0.0,0.0,48,0.00,,,0.00,,2013-03-16 06:49:00,
2013-03-16 01:54:00,58.5,39.0,-100.00,West,265,0.0,0.0,49,0.00,,,0.00,,2013-03-16 06:54:00,
2013-03-16 01:59:00,58.4,39.0,-100.00,West,265,0.0,0.0,50,0.00,,,0.00,,2013-03-16 06:59:00,
2013-03-16 02:04:00,58.4,38.0,-100.00,West,265,0.0,0.0,48,0.00,,,0.00,,2013-03-16 07:04:00,
2013-03-16 02:09:00,58.3,40.0,-100.00,West,265,0.0,0.0,51,0.00,,,0.00,,2013-03-16 07:09:00,
2013-03-16 02:14:00,58.2,40.0,-100.00,West,265,0.0,0.0,52,0.00,,,0.00,,2013-03-16 07:14:00,
2013-03-16 02:19:00,58.1,40.0,-100.00,West,265,0.0,0.0,52,0.00,,,0.00,,2013-03-16 07:19:00,
2013-03-16 02:24:00,58.1,47.0,-100.00,West,265,0.0,0.0,67,0.00,,,0.00,,2013-03-16 07:24:00,
2013-03-16 02:29:00,58.1,43.0,-100.00,West,265,0.0,0.0,58,0.00,,,0.00,,2013-03-16 07:29:00,
2013-03-16 02:34:00,58.0,47.0,-100.00,West,265,0.0,0.0,67,0.00,,,0.00,,2013-03-16 07:34:00,
2013-03-16 02:39:00,58.1,35.0,-100.00,West,265,0.0,0.0,43,0.00,,,0.00,,2013-03-16 07:39:00,
2013-03-16 02:44:00,58.0,43.0,-100.00,West,265,0.0,0.0,58,0.00,,,0.00,,2013-03-16 07:44:00,
2013-03-16 02:49:00,57.8,48.0,-100.00,SW,226,0.0,0.0,70,0.00,,,0.00,,2013-03-16 07:49:00,
2013-03-16 02:54:00,57.9,49.0,-100.00,West,265,0.0,0.0,74,0.00,,,0.00,,2013-03-16 07:54:00,
2013-03-16 02:59:00,57.9,44.0,-100.00,West,265,0.0,0.0,62,0.00,,,0.00,,2013-03-16 07:59:00,
2013-03-16 03:04:00,57.9,48.0,-100.00,West,265,0.0,0.0,71,0.00,,,0.00,,2013-03-16 08:04:00,
2013-03-16 03:09:00,57.9,44.0,-100.00,West,265,0.0,0.0,60,0.00,,,0.00,,2013-03-16 08:09:00,
2013-03-16 03:14:00,57.8,48.0,-100.00,West,265,0.0,0.0,72,0.00,,,0.00,,2013-03-16 08:14:00,
2013-03-16 03:19:00,57.6,51.0,-100.00,West,265,0.0,0.0,81,0.00,,,0.00,,2013-03-16 08:19:00,
2013-03-16 03:24:00,57.7,50.0,-100.00,West,265,0.0,0.0,77,0.00,,,0.00,,2013-03-16 08:24:00,
2013-03-16 03:34:00,57.7,53.0,-100.00,West,265,0.0,0.0,86,0.00,,,0.00,,2013-03-16 08:34:00,
2013-03-16 03:44:00,57.7,50.0,-100.00,West,265,0.0,0.0,76,0.00,,,0.00,,2013-03-16 08:44:00,
2013-03-16 03:49:00,57.7,53.0,-100.00,West,265,0.0,0.0,86,0.00,,,0.00,,2013-03-16 08:49:00,
2013-03-16 03:54:00,57.7,54.0,-100.00,West,265,0.0,0.0,90,0.00,,,0.00,,2013-03-16 08:54:00,
2013-03-16 03:59:00,57.6,53.0,-100.00,West,265,0.0,0.0,87,0.00,,,0.00,,2013-03-16 08:59:00,
2013-03-16 04:04:00,57.6,55.0,-100.00,West,265,0.0,0.0,94,0.00,,,0.00,,2013-03-16 09:04:00,
2013-03-16 04:09:00,57.6,54.0,-100.00,West,265,0.0,0.0,91,0.00,,,0.00,,2013-03-16 09:09:00,
2013-03-16 04:14:00,57.5,55.0,-100.00,West,265,0.0,0.0,93,0.00,,,0.00,,2013-03-16 09:14:00,
2013-03-16 04:19:00,57.6,54.0,-100.00,West,265,0.0,0.0,91,0.00,,,0.00,,2013-03-16 09:19:00,
2013-03-16 04:24:00,57.5,55.0,-100.00,West,265,0.0,0.0,93,0.00,,,0.00,,2013-03-16 09:24:00,
2013-03-16 04:34:00,57.5,56.0,-100.00,West,265,0.0,0.0,95,0.00,,,0.00,,2013-03-16 09:34:00,
2013-03-16 04:39:00,57.5,56.0,-100.00,West,265,0.0,0.0,98,0.00,,,0.00,,2013-03-16 09:39:00,
2013-03-16 04:44:00,57.4,56.0,-100.00,West,265,0.0,0.0,98,0.00,,,0.00,,2013-03-16 09:44:00,
2013-03-16 04:49:00,57.3,57.0,-100.00,West,262,0.0,0.0,100,0.00,,,0.00,,2013-03-16 09:49:00,
2013-03-16 04:54:00,57.2,56.0,-100.00,West,265,0.0,0.0,99,0.00,,,0.00,,2013-03-16 09:54:00,
2013-03-16 04:59:00,57.2,55.0,-100.00,West,265,0.0,0.0,95,0.00,,,0.00,,2013-03-16 09:59:00,
2013-03-16 05:04:00,57.1,57.0,-100.00,West,265,0.0,0.0,100,0.00,,,0.00,,2013-03-16 10:04:00,
2013-03-16 05:09:00,57.1,57.0,-100.00,West,265,0.0,0.0,100,0.00,,,0.00,,2013-03-16 10:09:00,
2013-03-16 05:14:00,57.1,56.0,-100.00,West,265,0.0,0.0,97,0.00,,,0.00,,2013-03-16 10:14:00,
2013-03-16 05:19:00,57.1,56.0,-100.00,West,265,0.0,0.0,97,0.00,,,0.00,,2013-03-16 10:19:00,
2013-03-16 05:24:00,57.1,56.0,-100.00,West,265,0.0,0.0,97,0.00,,,0.00,,2013-03-16 10:24:00,
2013-03-16 05:29:00,57.0,57.0,-100.00,West,265,0.0,0.0,100,0.00,,,0.00,,2013-03-16 10:29:00,
2013-03-16 05:39:00,55.9,55.0,-100.00,West,265,0.0,0.0,100,0.00,,,0.00,,2013-03-16 10:39:00,
2013-03-16 05:44:00,55.9,55.0,-100.00,West,265,0.0,0.0,100,0.00,,,0.00,,2013-03-16 10:44:00,
2013-03-16 05:49:00,55.8,55.0,-100.00,West,265,0.0,0.0,99,0.00,,,0.00,,2013-03-16 10:49:00,
2013-03-16 05:54:00,55.8,55.0,-100.00,West,265,0.0,0.0,100,0.00,,,0.00,,2013-03-16 10:54:00,
2013-03-16 05:59:00,55.8,55.0,-100.00,West,265,0.0,0.0,100,0.00,,,0.00,,2013-03-16 10:59:00,
2013-03-16 06:04:00,55.6,55.0,-100.00,West,265,0.0,0.0,100,0.00,,,0.00,,2013-03-16 11:04:00,
2013-03-16 06:09:00,55.6,55.0,-100.00,West,265,0.0,0.0,98,0.00,,,0.00,,2013-03-16 11:09:00,
2013-03-16 06:14:00,55.5,55.0,-100.00,West,265,0.0,0.0,100,0.00,,,0.00,,2013-03-16 11:14:00,
2013-03-16 06:19:00,55.6,55.0,-100.00,West,265,0.0,0.0,99,0.00,,,0.00,,2013-03-16 11:19:00,
2013-03-16 06:24:00,55.5,55.0,-100.00,West,265,0.0,0.0,100,0.00,,,0.00,,2013-03-16 11:24:00,
2013-03-16 06:29:00,55.5,55.0,-100.00,West,265,0.0,0.0,100,0.00,,,0.00,,2013-03-16 11:29:00,
2013-03-16 06:34:00,55.5,55.0,-100.00,West,265,0.0,0.0,100,0.00,,,0.00,,2013-03-16 11:34:00,
2013-03-16 06:39:00,55.5,55.0,-100.00,West,265,0.0,0.0,100,0.00,,,0.00,,2013-03-16 11:39:00,
2013-03-16 06:44:00,55.3,55.0,-100.00,West,265,0.0,0.0,100,0.00,,,0.00,,2013-03-16 11:44:00,
2013-03-16 06:49:00,55.3,55.0,-100.00,West,265,0.0,0.0,100,0.00,,,0.00,,2013-03-16 11:49:00,
2013-03-16 06:54:00,55.3,55.0,-100.00,West,265,0.0,0.0,100,0.00,,,0.00,,2013-03-16 11:54:00,
2013-03-16 06:59:00,55.2,55.0,-100.00,West,265,0.0,0.0,100,0.00,,,0.00,,2013-03-16 11:59:00,
2013-03-16 07:04:00,55.2,54.0,-100.00,West,265,0.0,0.0,99,0.00,,,0.00,,2013-03-16 12:04:00,
2013-03-16 07:09:00,55.1,55.0,-100.00,WSW,237,0.0,0.0,100,0.00,,,0.00,,2013-03-16 12:09:00,
2013-03-16 07:14:00,55.2,55.0,-100.00,SW,220,0.0,0.0,100,0.00,,,0.00,,2013-03-16 12:14:00,
2013-03-16 07:19:00,55.1,55.0,-100.00,West,265,0.0,0.0,100,0.00,,,0.00,,2013-03-16 12:19:00,
2013-03-16 07:24:00,55.1,55.0,-100.00,West,265,0.0,0.0,100,0.00,,,0.00,,2013-03-16 12:24:00,
2013-03-16 07:29:00,55.1,55.0,-100.00,West,265,0.0,0.0,100,0.00,,,0.00,,2013-03-16 12:29:00,
2013-03-16 07:34:00,55.1,55.0,-100.00,West,265,0.0,0.0,100,0.00,,,0.00,,2013-03-16 12:34:00,
2013-03-16 07:44:00,55.1,55.0,-100.00,West,265,0.0,0.0,100,0.00,,,0.00,,2013-03-16 12:44:00,
2013-03-16 07:49:00,55.1,55.0,-100.00,West,265,0.0,0.0,100,0.00,,,0.00,,2013-03-16 12:49:00,
2013-03-16 07:54:00,55.1,55.0,-100.00,West,265,0.0,0.0,100,0.00,,,0.00,,2013-03-16 12:54:00,
2013-03-16 07:59:00,55.2,55.0,-100.00,West,265,0.0,0.0,100,0.00,,,0.00,,2013-03-16 12:59:00,
2013-03-16 08:04:00,55.3,55.0,-100.00,West,265,0.0,0.0,100,0.00,,,0.00,,2013-03-16 13:04:00,
2013-03-16 08:09:00,55.5,55.0,-100.00,West,265,0.0,0.0,100,0.00,,,0.00,,2013-03-16 13:09:00,
2013-03-16 08:14:00,55.6,55.0,-100.00,West,265,0.0,0.0,100,0.00,,,0.00,,2013-03-16 13:14:00,
2013-03-16 08:19:00,55.8,55.0,-100.00,West,265,0.0,0.0,100,0.00,,,0.00,,2013-03-16 13:19:00,
2013-03-16 08:24:00,57.1,57.0,-100.00,West,265,0.0,0.0,100,0.00,,,0.00,,2013-03-16 13:24:00,
2013-03-16 08:29:00,57.3,57.0,-100.00,West,265,0.0,0.0,100,0.00,,,0.00,,2013-03-16 13:29:00,
2013-03-16 08:39:00,57.8,57.0,-100.00,West,265,0.0,0.0,100,0.00,,,0.00,,2013-03-16 13:39:00,
2013-03-16 08:44:00,58.1,58.0,-100.00,West,265,0.0,0.0,100,0.00,,,0.00,,2013-03-16 13:44:00,
2013-03-16 08:49:00,58.4,58.0,-100.00,West,265,0.0,0.0,100,0.00,,,0.00,,2013-03-16 13:49:00,
2013-03-16 08:54:00,58.7,58.0,-100.00,West,265,0.0,0.0,100,0.00,,,0.00,,2013-03-16 13:54:00,
2013-03-16 08:59:00,60.0,60.0,-100.00,West,268,0.0,0.0,100,0.00,,,0.00,,2013-03-16 13:59:00,
2013-03-16 09:04:00,60.4,60.0,-100.00,West,265,0.0,0.0,100,0.00,,,0.00,,2013-03-16 14:04:00,
2013-03-16 09:09:00,60.7,60.0,-100.00,West,265,0.0,0.0,100,0.00,,,0.00,,2013-03-16 14:09:00,
2013-03-16 09:14:00,62.8,62.0,-100.00,West,265,0.0,0.0,100,0.00,,,0.00,,2013-03-16 14:14:00,
2013-03-16 09:19:00,64.5,64.0,-100.00,West,262,0.0,0.0,100,0.00,,,0.00,,2013-03-16 14:19:00,
2013-03-16 09:24:00,64.1,64.0,-100.00,West,265,0.0,0.0,100,0.00,,,0.00,,2013-03-16 14:24:00,
2013-03-16 09:29:00,64.0,64.0,-100.00,West,265,0.0,0.0,100,0.00,,,0.00,,2013-03-16 14:29:00,
2013-03-16 09:34:00,64.0,64.0,-100.00,West,274,0.0,0.0,100,0.00,,,0.00,,2013-03-16 14:34:00,
2013-03-16 09:39:00,64.5,64.0,-100.00,WNW,288,0.0,0.0,100,0.00,,,0.00,,2013-03-16 14:39:00,
2013-03-16 09:44:00,66.7,66.0,-100.00,WNW,285,0.0,0.0,100,0.00,,,0.00,,2013-03-16 14:44:00,
2013-03-16 09:49:00,67.0,66.0,-100.00,West,268,0.0,0.0,98,0.00,,,0.00,,2013-03-16 14:49:00,
2013-03-16 09:54:00,66.6,65.0,-100.00,West,265,0.0,0.0,95,0.00,,,0.00,,2013-03-16 14:54:00,
2013-03-16 09:59:00,66.5,64.0,-100.00,WNW,296,0.0,0.0,92,0.00,,,0.00,,2013-03-16 14:59:00,
2013-03-16 10:04:00,66.6,62.0,-100.00,WNW,285,0.0,0.0,88,0.00,,,0.00,,2013-03-16 15:04:00,
2013-03-16 10:09:00,67.0,61.0,-100.00,West,279,0.0,0.0,83,0.00,,,0.00,,2013-03-16 15:09:00,
2013-03-16 10:14:00,67.5,62.0,-100.00,WNW,302,0.0,0.0,83,0.00,,,0.00,,2013-03-16 15:14:00,
2013-03-16 10:19:00,71.3,64.0,-100.00,WNW,294,0.0,0.0,80,0.00,,,0.00,,2013-03-16 15:19:00,
2013-03-16 10:24:00,71.8,64.0,-100.00,West,268,0.0,0.0,77,0.00,,,0.00,,2013-03-16 15:24:00,
2013-03-16 10:34:00,71.0,63.0,-100.00,West,276,0.0,0.0,76,0.00,,,0.00,,2013-03-16 15:34:00,
2013-03-16 10:39:00,71.1,62.0,-100.00,West,265,0.0,0.0,75,0.00,,,0.00,,2013-03-16 15:39:00,
2013-03-16 10:44:00,71.5,61.0,-100.00,WNW,299,0.0,0.0,71,0.00,,,0.00,,2013-03-16 15:44:00,
2013-03-16 10:49:00,71.9,61.0,-100.00,WNW,285,0.0,0.0,70,0.00,,,0.00,,2013-03-16 15:49:00,
2013-03-16 10:54:00,73.2,60.0,-100.00,West,277,0.0,0.0,65,0.00,,,0.00,,2013-03-16 15:54:00,
2013-03-16 10:59:00,73.3,59.0,-100.00,WNW,285,0.0,0.0,63,0.00,,,0.00,,2013-03-16 15:59:00,
2013-03-16 11:04:00,73.4,59.0,-100.00,WNW,291,0.0,0.0,62,0.00,,,0.00,,2013-03-16 16:04:00,
2013-03-16 11:09:00,73.8,59.0,-100.00,West,276,0.0,0.0,60,0.00,,,0.00,,2013-03-16 16:09:00,
2013-03-16 11:14:00,73.6,58.0,-100.00,WNW,282,0.0,0.0,59,0.00,,,0.00,,2013-03-16 16:14:00,
2013-03-16 11:19:00,73.5,58.0,-100.00,West,279,0.0,0.0,59,0.00,,,0.00,,2013-03-16 16:19:00,
2013-03-16 11:24:00,75.2,59.0,-100.00,West,277,0.0,0.0,58,0.00,,,0.00,,2013-03-16 16:24:00,
2013-03-16 11:29:00,75.5,59.0,-100.00,WNW,285,0.0,0.0,57,0.00,,,0.00,,2013-03-16 16:29:00,
2013-03-16 11:34:00,75.1,58.0,-100.00,WNW,291,0.0,0.0,56,0.00,,,0.00,,2013-03-16 16:34:00,
2013-03-16 11:44:00,75.8,57.0,-100.00,West,279,0.0,0.0,53,0.00,,,0.00,,2013-03-16 16:44:00,
2013-03-16 11:54:00,75.9,57.0,-100.00,West,276,0.0,0.0,53,0.00,,,0.00,,2013-03-16 16:54:00,
2013-03-16 12:04:00,76.1,56.0,-100.00,West,276,0.0,0.0,51,0.00,,,0.00,,2013-03-16 17:04:00,
2013-03-16 12:09:00,76.6,56.0,-100.00,West,265,0.0,0.0,50,0.00,,,0.00,,2013-03-16 17:09:00,
2013-03-16 12:14:00,76.6,56.0,-100.00,West,268,0.0,0.0,50,0.00,,,0.00,,2013-03-16 17:14:00,
2013-03-16 12:24:00,78.1,57.0,-100.00,SW,220,0.0,0.0,49,0.00,,,0.00,,2013-03-16 17:24:00,
2013-03-16 12:29:00,78.1,56.0,-100.00,SW,220,0.0,0.0,48,0.00,,,0.00,,2013-03-16 17:29:00,
2013-03-16 12:34:00,78.3,55.0,-100.00,SW,220,0.0,0.0,46,0.00,,,0.00,,2013-03-16 17:34:00,
2013-03-16 12:39:00,80.3,57.0,-100.00,SW,220,0.0,0.0,46,0.00,,,0.00,,2013-03-16 17:39:00,
2013-03-16 12:44:00,80.0,56.0,-100.00,SW,220,0.0,0.0,45,0.00,,,0.00,,2013-03-16 17:44:00,
2013-03-16 12:49:00,80.0,56.0,-100.00,SW,220,0.0,0.0,45,0.00,,,0.00,,2013-03-16 17:49:00,
2013-03-16 12:54:00,80.1,57.0,-100.00,SW,220,0.0,0.0,46,0.00,,,0.00,,2013-03-16 17:54:00,
2013-03-16 12:59:00,80.9,56.0,-100.00,SW,220,0.0,0.0,43,0.00,,,0.00,,2013-03-16 17:59:00,
2013-03-16 13:09:00,82.1,56.0,-100.00,SW,220,0.0,0.0,42,0.00,,,0.00,,2013-03-16 18:09:00,
2013-03-16 13:14:00,82.1,57.0,-100.00,SW,220,0.0,0.0,43,0.00,,,0.00,,2013-03-16 18:14:00,
2013-03-16 13:19:00,80.5,57.0,-100.00,SW,220,0.0,0.0,45,0.00,,,0.00,,2013-03-16 18:19:00,
2013-03-16 13:24:00,80.8,56.0,-100.00,SW,220,0.0,0.0,43,0.00,,,0.00,,2013-03-16 18:24:00,
2013-03-16 13:29:00,80.9,56.0,-100.00,SW,220,0.0,0.0,43,0.00,,,0.00,,2013-03-16 18:29:00,
2013-03-16 13:39:00,82.6,56.0,-100.00,SW,220,0.0,0.0,41,0.00,,,0.00,,2013-03-16 18:39:00,
2013-03-16 13:44:00,82.7,55.0,-100.00,SW,220,0.0,0.0,40,0.00,,,0.00,,2013-03-16 18:44:00,
2013-03-16 13:49:00,84.4,56.0,-100.00,SW,220,0.0,0.0,39,0.00,,,0.00,,2013-03-16 18:49:00,
2013-03-16 13:59:00,82.8,55.0,-100.00,SW,220,0.0,0.0,40,0.00,,,0.00,,2013-03-16 18:59:00,
2013-03-16 14:04:00,82.7,56.0,-100.00,SW,220,0.0,0.0,41,0.00,,,0.00,,2013-03-16 19:04:00,
2013-03-16 14:09:00,84.2,56.0,-100.00,SW,220,0.0,0.0,39,0.00,,,0.00,,2013-03-16 19:09:00,
2013-03-16 14:14:00,84.3,-13.0,-100.00,SW,220,0.0,0.0,2,0.00,,,0.00,,2013-03-16 19:14:00,
2013-03-16 14:19:00,82.9,-5.0,-100.00,SW,220,0.0,0.0,3,0.00,,,0.00,,2013-03-16 19:19:00,
2013-03-16 14:24:00,84.5,-12.0,-100.00,SW,220,0.0,0.0,2,0.00,,,0.00,,2013-03-16 19:24:00,
2013-03-16 14:29:00,84.6,-12.0,-100.00,SW,220,0.0,0.0,2,0.00,,,0.00,,2013-03-16 19:29:00,
2013-03-16 14:34:00,84.1,-13.0,-100.00,SW,220,0.0,0.0,2,0.00,,,0.00,,2013-03-16 19:34:00,
2013-03-16 14:39:00,84.0,-13.0,-100.00,SW,220,0.0,0.0,2,0.00,,,0.00,,2013-03-16 19:39:00,
2013-03-16 14:44:00,84.1,-13.0,-100.00,SW,220,0.0,0.0,2,0.00,,,0.00,,2013-03-16 19:44:00,
2013-03-16 14:49:00,84.5,-12.0,-100.00,SW,220,0.0,0.0,2,0.00,,,0.00,,2013-03-16 19:49:00,
2013-03-16 14:54:00,84.5,-12.0,-100.00,SW,220,0.0,0.0,2,0.00,,,0.00,,2013-03-16 19:54:00,
2013-03-16 14:59:00,84.4,-12.0,-100.00,SW,220,0.0,0.0,2,0.00,,,0.00,,2013-03-16 19:59:00,
2013-03-16 15:09:00,85.7,-12.0,-100.00,SW,220,0.0,0.0,2,0.00,,,0.00,,2013-03-16 20:09:00,
2013-03-16 15:19:00,85.5,-12.0,-100.00,SW,220,0.0,0.0,2,0.00,,,0.00,,2013-03-16 20:19:00,
2013-03-16 15:24:00,85.0,-12.0,-100.00,SW,220,0.0,0.0,2,0.00,,,0.00,,2013-03-16 20:24:00,
2013-03-16 15:29:00,85.0,-12.0,-100.00,SW,220,0.0,0.0,2,0.00,,,0.00,,2013-03-16 20:29:00,
2013-03-16 15:34:00,85.5,-12.0,-100.00,SW,220,0.0,0.0,2,0.00,,,0.00,,2013-03-16 20:34:00,
2013-03-16 15:39:00,85.5,-12.0,-100.00,SW,220,0.0,0.0,2,0.00,,,0.00,,2013-03-16 20:39:00,
2013-03-16 15:44:00,85.8,-12.0,-100.00,SW,220,0.0,0.0,2,0.00,,,0.00,,2013-03-16 20:44:00,
2013-03-16 15:49:00,85.5,-12.0,-100.00,SW,220,0.0,0.0,2,0.00,,,0.00,,2013-03-16 20:49:00,
2013-03-16 15:54:00,85.3,-12.0,-100.00,SW,220,0.0,0.0,2,0.00,,,0.00,,2013-03-16 20:54:00,
2013-03-16 15:59:00,85.3,-12.0,-100.00,SW,220,0.0,0.0,2,0.00,,,0.00,,2013-03-16 20:59:00,
2013-03-16 16:04:00,85.3,-12.0,-100.00,SW,220,0.0,0.0,2,0.00,,,0.00,,2013-03-16 21:04:00,
2013-03-16 16:09:00,85.0,-12.0,-100.00,SW,220,0.0,0.0,2,0.00,,,0.00,,2013-03-16 21:09:00,
2013-03-16 16:14:00,85.1,-12.0,-100.00,SW,220,0.0,0.0,2,0.00,,,0.00,,2013-03-16 21:14:00,
2013-03-16 16:19:00,85.0,-4.0,-100.00,SW,220,0.0,0.0,3,0.00,,,0.00,,2013-03-16 21:19:00,
2013-03-16 16:24:00,84.8,-12.0,-100.00,SW,220,0.0,0.0,2,0.00,,,0.00,,2013-03-16 21:24:00,
2013-03-16 16:29:00,85.3,-12.0,-100.00,SW,220,0.0,0.0,2,0.00,,,0.00,,2013-03-16 21:29:00,
2013-03-16 16:34:00,84.8,-12.0,-100.00,SW,220,0.0,0.0,2,0.00,,,0.00,,2013-03-16 21:34:00,
2013-03-16 16:39:00,84.3,-13.0,-100.00,SW,220,0.0,0.0,2,0.00,,,0.00,,2013-03-16 21:39:00,
2013-03-16 16:44:00,84.6,-12.0,-100.00,SW,220,0.0,0.0,2,0.00,,,0.00,,2013-03-16 21:44:00,
2013-03-16 16:49:00,85.0,-25.0,-100.00,SW,220,0.0,0.0,1,0.00,,,0.00,,2013-03-16 21:49:00,
2013-03-16 16:54:00,84.9,-25.0,-100.00,SW,220,0.0,0.0,1,0.00,,,0.00,,2013-03-16 21:54:00,
2013-03-16 16:59:00,85.3,-25.0,-100.00,SW,220,0.0,0.0,1,0.00,,,0.00,,2013-03-16 21:59:00,
2013-03-16 17:04:00,84.8,-25.0,-100.00,SW,220,0.0,0.0,1,0.00,,,0.00,,2013-03-16 22:04:00,
2013-03-16 17:09:00,84.6,-26.0,-100.00,SW,220,0.0,0.0,1,0.00,,,0.00,,2013-03-16 22:09:00,
2013-03-16 17:14:00,84.5,-26.0,-100.00,SW,220,0.0,0.0,1,0.00,,,0.00,,2013-03-16 22:14:00,
2013-03-16 17:19:00,84.4,-26.0,-100.00,SW,220,0.0,0.0,1,0.00,,,0.00,,2013-03-16 22:19:00,
2013-03-16 17:24:00,84.5,-26.0,-100.00,SW,220,0.0,0.0,1,0.00,,,0.00,,2013-03-16 22:24:00,
2013-03-16 17:29:00,84.8,-25.0,-100.00,SW,220,0.0,0.0,1,0.00,,,0.00,,2013-03-16 22:29:00,
2013-03-16 17:34:00,84.7,-26.0,-100.00,SW,220,0.0,0.0,1,0.00,,,0.00,,2013-03-16 22:34:00,
2013-03-16 17:39:00,84.4,-26.0,-100.00,SW,220,0.0,0.0,1,0.00,,,0.00,,2013-03-16 22:39:00,
2013-03-16 17:44:00,84.5,-26.0,-100.00,SW,220,0.0,0.0,1,0.00,,,0.00,,2013-03-16 22:44:00,
2013-03-16 17:49:00,84.3,-26.0,-100.00,SW,220,0.0,0.0,1,0.00,,,0.00,,2013-03-16 22:49:00,
2013-03-16 17:54:00,82.8,-13.0,-100.00,SW,220,0.0,0.0,2,0.00,,,0.00,,2013-03-16 22:54:00,
2013-03-16 17:59:00,82.5,-14.0,-100.00,SW,220,0.0,0.0,2,0.00,,,0.00,,2013-03-16 22:59:00,
2013-03-16 18:09:00,82.0,-14.0,-100.00,SW,220,0.0,0.0,2,0.00,,,0.00,,2013-03-16 23:09:00,
2013-03-16 18:14:00,82.0,-14.0,-100.00,SW,220,0.0,0.0,2,0.00,,,0.00,,2013-03-16 23:14:00,
2013-03-16 18:19:00,80.7,-7.0,-100.00,SW,220,0.0,0.0,3,0.00,,,0.00,,2013-03-16 23:19:00,
2013-03-16 18:24:00,80.6,-7.0,-100.00,SW,220,0.0,0.0,3,0.00,,,0.00,,2013-03-16 23:24:00,
2013-03-16 18:29:00,80.6,-7.0,-100.00,SW,220,0.0,0.0,3,0.00,,,0.00,,2013-03-16 23:29:00,
2013-03-16 18:34:00,80.4,-7.0,-100.00,SW,220,0.0,0.0,3,0.00,,,0.00,,2013-03-16 23:34:00,
2013-03-16 18:39:00,80.0,-7.0,-100.00,SW,220,0.0,0.0,3,0.00,,,0.00,,2013-03-16 23:39:00,
2013-03-16 18:44:00,80.0,-7.0,-100.00,SW,220,0.0,0.0,3,0.00,,,0.00,,2013-03-16 23:44:00,
2013-03-16 18:49:00,78.8,-8.0,-100.00,SW,220,0.0,0.0,3,0.00,,,0.00,,2013-03-16 23:49:00,
2013-03-16 18:54:00,78.6,-8.0,-100.00,SW,220,0.0,0.0,3,0.00,,,0.00,,2013-03-16 23:54:00,
2013-03-16 18:59:00,78.4,-2.0,-100.00,SW,220,0.0,0.0,4,0.00,,,0.00,,2013-03-16 23:59:00,
2013-03-16 19:04:00,78.1,-3.0,-100.00,SW,226,0.0,0.0,4,0.00,,,0.00,,2013-03-17 00:04:00,
2013-03-16 19:09:00,76.9,-3.0,-100.00,West,265,0.0,0.0,4,0.00,,,0.00,,2013-03-17 00:09:00,
2013-03-16 19:14:00,76.7,-3.0,-100.00,West,265,0.0,0.0,4,0.00,,,0.00,,2013-03-17 00:14:00,
2013-03-16 19:19:00,76.5,-4.0,-100.00,West,262,0.0,0.0,4,0.00,,,0.00,,2013-03-17 00:19:00,
2013-03-16 19:24:00,76.1,-4.0,-100.00,West,265,0.0,0.0,4,0.00,,,0.00,,2013-03-17 00:24:00,
2013-03-16 19:29:00,75.9,0.0,-100.00,West,262,0.0,0.0,5,0.00,,,0.00,,2013-03-17 00:29:00,
2013-03-16 19:34:00,75.6,0.0,-100.00,West,265,0.0,0.0,5,0.00,,,0.00,,2013-03-17 00:34:00,
2013-03-16 19:39:00,75.3,0.0,-100.00,West,265,0.0,0.0,5,0.00,,,0.00,,2013-03-17 00:39:00,
2013-03-16 19:44:00,75.2,0.0,-100.00,West,265,0.0,0.0,5,0.00,,,0.00,,2013-03-17 00:44:00,
2013-03-16 19:49:00,75.1,0.0,-100.00,West,265,0.0,0.0,5,0.00,,,0.00,,2013-03-17 00:49:00,
2013-03-16 19:54:00,75.0,0.0,-100.00,West,265,0.0,0.0,5,0.00,,,0.00,,2013-03-17 00:54:00,
2013-03-16 19:59:00,73.8,-1.0,-100.00,West,265,0.0,0.0,5,0.00,,,0.00,,2013-03-17 00:59:00,
2013-03-16 20:04:00,73.8,-1.0,-100.00,West,265,0.0,0.0,5,0.00,,,0.00,,2013-03-17 01:04:00,
2013-03-16 20:09:00,73.6,-1.0,-100.00,West,265,0.0,0.0,5,0.00,,,0.00,,2013-03-17 01:09:00,
2013-03-16 20:14:00,73.5,-1.0,-100.00,West,265,0.0,0.0,5,0.00,,,0.00,,2013-03-17 01:14:00,
2013-03-16 20:19:00,73.4,2.0,-100.00,West,265,0.0,0.0,6,0.00,,,0.00,,2013-03-17 01:19:00,
2013-03-16 20:24:00,73.1,2.0,-100.00,West,265,0.0,0.0,6,0.00,,,0.00,,2013-03-17 01:24:00,
2013-03-16 20:29:00,73.1,5.0,-100.00,WSW,251,0.0,0.0,7,0.00,,,0.00,,2013-03-17 01:29:00,
2013-03-16 20:39:00,71.8,7.0,-100.00,West,265,0.0,0.0,8,0.00,,,0.00,,2013-03-17 01:39:00,
2013-03-16 20:44:00,71.8,39.0,-100.00,West,265,0.0,0.0,31,0.00,,,0.00,,2013-03-17 01:44:00,
2013-03-16 20:49:00,71.7,52.0,-100.00,West,265,0.0,0.0,51,0.00,,,0.00,,2013-03-17 01:49:00,
2013-03-16 20:54:00,71.7,54.0,-100.00,West,265,0.0,0.0,54,0.00,,,0.00,,2013-03-17 01:54:00,
2013-03-16 20:59:00,71.6,54.0,-100.00,WSW,254,0.0,0.0,54,0.00,,,0.00,,2013-03-17 01:59:00,
2013-03-16 21:04:00,71.5,54.0,-100.00,West,265,0.0,0.0,56,0.00,,,0.00,,2013-03-17 02:04:00,
2013-03-16 21:09:00,71.4,55.0,-100.00,West,265,0.0,0.0,58,0.00,,,0.00,,2013-03-17 02:09:00,
2013-03-16 21:14:00,71.3,53.0,-100.00,West,265,0.0,0.0,53,0.00,,,0.00,,2013-03-17 02:14:00,
2013-03-16 21:19:00,71.2,28.0,-100.00,West,265,0.0,0.0,20,0.00,,,0.00,,2013-03-17 02:19:00,
2013-03-16 21:24:00,71.1,31.0,-100.00,West,265,0.0,0.0,23,0.00,,,0.00,,2013-03-17 02:24:00,
2013-03-16 21:29:00,71.1,53.0,-100.00,West,265,0.0,0.0,54,0.00,,,0.00,,2013-03-17 02:29:00,
2013-03-16 21:34:00,71.0,50.0,-100.00,West,265,0.0,0.0,49,0.00,,,0.00,,2013-03-17 02:34:00,
2013-03-16 21:39:00,69.9,55.0,-100.00,West,262,0.0,0.0,60,0.00,,,0.00,,2013-03-17 02:39:00,
2013-03-16 21:49:00,69.6,58.0,-100.00,West,265,0.0,0.0,68,0.00,,,0.00,,2013-03-17 02:49:00,
2013-03-16 21:54:00,69.5,58.0,-100.00,West,259,0.0,0.0,68,0.00,,,0.00,,2013-03-17 02:54:00,
2013-03-16 21:59:00,69.5,58.0,-100.00,West,259,0.0,0.0,69,0.00,,,0.00,,2013-03-17 02:59:00,
2013-03-16 22:04:00,69.3,57.0,-100.00,West,265,0.0,0.0,66,0.00,,,0.00,,2013-03-17 03:04:00,
2013-03-16 22:09:00,69.1,57.0,-100.00,West,262,0.0,0.0,66,0.00,,,0.00,,2013-03-17 03:09:00,
2013-03-16 22:19:00,67.9,52.0,-100.00,WSW,254,0.0,0.0,58,0.00,,,0.00,,2013-03-17 03:19:00,
2013-03-16 22:24:00,67.7,51.0,-100.00,West,260,0.0,0.0,56,0.00,,,0.00,,2013-03-17 03:24:00,
2013-03-16 22:29:00,67.6,54.0,-100.00,WSW,245,0.0,0.0,62,0.00,,,0.00,,2013-03-17 03:29:00,
2013-03-16 22:34:00,67.4,50.0,-100.00,West,265,0.0,0.0,54,0.00,,,0.00,,2013-03-17 03:34:00,
2013-03-16 22:39:00,67.3,58.0,-100.00,West,265,0.0,0.0,73,0.00,,,0.00,,2013-03-17 03:39:00,
2013-03-16 22:44:00,67.1,62.0,-100.00,West,262,0.0,0.0,84,0.00,,,0.00,,2013-03-17 03:44:00,
2013-03-16 22:54:00,66.8,61.0,-100.00,West,265,0.0,0.0,83,0.00,,,0.00,,2013-03-17 03:54:00,
2013-03-16 23:04:00,66.6,59.0,-100.00,West,268,0.0,0.0,77,0.00,,,0.00,,2013-03-17 04:04:00,
2013-03-16 23:09:00,66.5,58.0,-100.00,West,265,0.0,0.0,75,0.00,,,0.00,,2013-03-17 04:09:00,
2013-03-16 23:14:00,66.3,56.0,-100.00,West,265,0.0,0.0,71,0.00,,,0.00,,2013-03-17 04:14:00,
2013-03-16 23:19:00,66.3,65.0,-100.00,West,265,0.0,0.0,96,0.00,,,0.00,,2013-03-17 04:19:00,
2013-03-16 23:24:00,66.1,62.0,-100.00,West,265,0.0,0.0,89,0.00,,,0.00,,2013-03-17 04:24:00,
2013-03-16 23:29:00,66.1,62.0,-100.00,West,265,0.0,0.0,88,0.00,,,0.00,,2013-03-17 04:29:00,
2013-03-16 23:34:00,66.1,62.0,-100.00,West,265,0.0,0.0,88,0.00,,,0.00,,2013-03-17 04:34:00,
2013-03-16 23:39:00,66.1,62.0,-100.00,West,265,0.0,0.0,88,0.00,,,0.00,,2013-03-17 04:39:00,
2013-03-16 23:44:00,66.1,62.0,-100.00,West,265,0.0,0.0,88,0.00,,,0.00,,2013-03-17 04:44:00,
2013-03-16 23:54:00,66.1,62.0,-100.00,West,265,0.0,0.0,88,0.00,,,0.00,,2013-03-17 04:54:00,
2013-03-16 23:59:00,66.1,62.0,-100.00,West,265,0.0,0.0,88,0.00,,,0.00,,2013-03-17 04:59:00,